Carrier Princess — CZ3582 — position and weather

sailwx.info

Track history (hours):
 
Tides and Currents Weather Stations Pressure Air Temp Water Temp Dewpoint Dewpoint Depression Visibility Wind Speed Wind Dir Waves Ship Positions

Carrier Princess

Last reported at 2015-Feb-01 06:34 UTC. Time now 2015-Feb-01 07:14 UTC.
Position N 49°07' W 123°09'.

Length 112 m; draft 3 m.

Type: Cargo ship. MMSI: 316003656.

Date/timePositionNaut miles runAvg speedWind from/ knotsBaromVisibWave heightAir tempDewpointWater temp
2015-Feb-01 06:34N 49°07' W 123°09'5 5.1
2015-Feb-01 05:33N 49°09' W 123°02'0 0.0
2015-Feb-01 04:33N 49°09' W 123°02'0 0.0
2015-Feb-01 03:33N 49°09' W 123°02'0 0.0
2015-Feb-01 02:33N 49°09' W 123°02'0 0.0
2015-Feb-01 01:33N 49°09' W 123°02'0 0.0
2015-Feb-01 00:33N 49°09' W 123°02'0 0.0
2015-Jan-31 23:33N 49°09' W 123°02'2 2.2
2015-Jan-31 22:33N 49°07' W 123°05'1312.8
2015-Jan-31 21:33N 49°07' W 123°24'1515.0
2015-Jan-31 20:34N 49°12' W 123°46'7 7.0
2015-Jan-31 19:33N 49°10' W 123°56'0 0.0
2015-Jan-31 18:33N 49°10' W 123°56'0 0.0
2015-Jan-31 17:29N 49°10' W 123°56'0 0.0
2015-Jan-31 16:33N 49°10' W 123°56'0 0.0
2015-Jan-31 15:33N 49°10' W 123°56'0 0.0
2015-Jan-31 14:33N 49°10' W 123°56'0 0.0
2015-Jan-31 13:33N 49°10' W 123°56'2 2.1
2015-Jan-31 12:33N 49°11' W 123°54'1514.9
2015-Jan-31 11:33N 49°09' W 123°31'1514.8
2015-Jan-31 10:34N 49°07' W 123°09'5 4.9
2015-Jan-31 09:33N 49°09' W 123°02'0 0.0
2015-Jan-31 08:33N 49°09' W 123°02'6 6.0
2015-Jan-31 07:33N 49°07' W 123°11'1212.1
2015-Jan-31 06:34N 49°08' W 123°29'1413.8
2015-Jan-31 05:33N 49°13' W 123°49'6 5.6
2015-Jan-31 04:33N 49°10' W 123°56'0 0.2
2015-Jan-31 03:34N 49°10' W 123°55'1212.4
2015-Jan-31 02:34N 49°12' W 123°37'1413.6
2015-Jan-31 01:33N 49°07' W 123°17'1010.0
2015-Jan-31 00:33N 49°09' W 123°02'0 0.1
2015-Jan-30 23:33N 49°09' W 123°02'5 4.7
2015-Jan-30 22:33N 49°06' W 123°09'10 9.7
2015-Jan-30 21:33N 49°00' W 123°20'1313.0
2015-Jan-30 20:33N 48°47' W 123°20'6 6.4
2015-Jan-30 19:33N 48°41' W 123°24'0 0.0
2015-Jan-30 18:33N 48°41' W 123°24'0 0.0
2015-Jan-30 17:33N 48°41' W 123°24'0 0.0
2015-Jan-30 16:33N 48°41' W 123°24'0 0.0
2015-Jan-30 15:33N 48°41' W 123°24'0 0.0
2015-Jan-30 14:33N 48°41' W 123°24'0 0.0
2015-Jan-30 13:33N 48°41' W 123°24'3 2.7
2015-Jan-30 12:33N 48°44' W 123°23'1111.0
2015-Jan-30 11:33N 48°54' W 123°18'1413.7
2015-Jan-30 10:34N 49°08' W 123°15'8 8.3
2015-Jan-30 09:33N 49°09' W 123°02'0 0.0
2015-Jan-30 08:33N 49°09' W 123°02'7 7.1
2015-Jan-30 07:33N 49°08' W 123°13'1312.5
2015-Jan-30 06:33N 49°09' W 123°32'1414.0
2015-Jan-30 05:33N 49°12' W 123°52'3 3.2
2015-Jan-30 04:33N 49°10' W 123°56'0 0.2
2015-Jan-30 03:33N 49°10' W 123°55'1110.6
2015-Jan-30 02:33N 49°11' W 123°40'1312.9
2015-Jan-30 01:33N 49°07' W 123°21'1312.7
2015-Jan-30 00:34N 49°09' W 123°02'0 0.0
2015-Jan-29 23:33N 49°09' W 123°02'4 4.3
2015-Jan-29 22:33N 49°06' W 123°08'9 9.4
2015-Jan-29 21:33N 49°01' W 123°19'1111.0
2015-Jan-29 20:33N 48°50' W 123°21'9 8.9
2015-Jan-29 19:34N 48°41' W 123°24'0 0.0
2015-Jan-29 18:34N 48°41' W 123°24'0 0.0
2015-Jan-29 17:32N 48°41' W 123°24'0 0.0
2015-Jan-29 16:33N 48°41' W 123°24'0 0.0
2015-Jan-29 15:34N 48°41' W 123°24'0 0.0
2015-Jan-29 14:34N 48°41' W 123°24'0 0.0
2015-Jan-29 13:33N 48°41' W 123°24'2 1.8
2015-Jan-29 12:33N 48°43' W 123°24'1313.4
2015-Jan-29 11:34N 48°56' W 123°18'1212.3
2015-Jan-29 10:34N 49°08' W 123°13'7 7.2
2015-Jan-29 09:33N 49°09' W 123°02'0 0.0
2015-Jan-29 08:33N 49°09' W 123°02'7 6.7
2015-Jan-29 07:34N 49°07' W 123°12'1313.0
2015-Jan-29 06:33N 49°09' W 123°32'1313.1
2015-Jan-29 05:33N 49°13' W 123°51'4 4.3
2015-Jan-29 04:33N 49°10' W 123°56'0 0.2
2015-Jan-29 03:33N 49°10' W 123°55'1211.7
2015-Jan-29 02:33N 49°12' W 123°38'1313.3
2015-Jan-29 01:34N 49°06' W 123°19'1211.6
2015-Jan-29 00:34N 49°09' W 123°02'0 0.0
2015-Jan-28 23:33N 49°09' W 123°02'4 4.0
2015-Jan-28 22:33N 49°07' W 123°07'9 9.3
2015-Jan-28 21:33N 49°02' W 123°20'1211.9
2015-Jan-28 20:32N 48°50' W 123°21'9 9.1
2015-Jan-28 19:33N 48°41' W 123°24'0 0.0
2015-Jan-28 18:33N 48°41' W 123°24'0 0.0
2015-Jan-28 17:33N 48°41' W 123°24'0 0.0
2015-Jan-28 16:33N 48°41' W 123°24'0 0.0
2015-Jan-28 15:33N 48°41' W 123°24'0 0.0
2015-Jan-28 14:33N 48°41' W 123°24'0 0.0
2015-Jan-28 13:33N 48°41' W 123°24'2 1.8
2015-Jan-28 12:33N 48°43' W 123°24'1616.5
2015-Jan-28 11:34N 48°59' W 123°18'1212.3
2015-Jan-28 10:34N 49°07' W 123°05'2 2.0
2015-Jan-28 09:33N 49°09' W 123°02'0 0.0
2015-Jan-28 08:33N 49°09' W 123°02'8 7.5
2015-Jan-28 07:33N 49°08' W 123°13'1211.8
2015-Jan-28 06:33N 49°09' W 123°32'1312.9
2015-Jan-28 05:33N 49°13' W 123°50'5 4.7
2015-Jan-28 04:33N 49°10' W 123°56'0 0.1
2015-Jan-28 03:33N 49°10' W 123°56'1010.4
2015-Jan-28 02:33N 49°12' W 123°40'1313.0
2015-Jan-28 01:33N 49°07' W 123°22'1312.8
2015-Jan-28 00:34N 49°09' W 123°02'0 0.2
2015-Jan-27 23:33N 49°09' W 123°02'4 3.9
2015-Jan-27 22:33N 49°07' W 123°07'9 9.2
2015-Jan-27 21:34N 49°02' W 123°19'1211.9
2015-Jan-27 20:33N 48°50' W 123°20'9 8.9
2015-Jan-27 19:34N 48°41' W 123°24'0 0.0
2015-Jan-27 18:33N 48°41' W 123°24'0 0.0
2015-Jan-27 17:33N 48°41' W 123°24'0 0.0
2015-Jan-27 16:33N 48°41' W 123°24'0 0.0
2015-Jan-27 15:33N 48°41' W 123°24'0 0.0
2015-Jan-27 14:33N 48°41' W 123°24'0 0.0
2015-Jan-27 13:33N 48°41' W 123°24'3 3.0
2015-Jan-27 12:33N 48°44' W 123°23'1413.6
2015-Jan-27 11:33N 48°58' W 123°21'1111.2
2015-Jan-27 10:34N 49°08' W 123°13'7 7.1
2015-Jan-27 09:33N 49°09' W 123°02'0 0.0
2015-Jan-27 08:33N 49°09' W 123°02'8 8.3
2015-Jan-27 07:34N 49°08' W 123°15'1212.5
2015-Jan-27 06:34N 49°10' W 123°34'1313.2
2015-Jan-27 05:33N 49°11' W 123°54'1 1.4
2015-Jan-27 04:33N 49°10' W 123°56'1 0.7
2015-Jan-27 03:33N 49°10' W 123°55'1010.3
2015-Jan-27 02:33N 49°12' W 123°39'1313.0
2015-Jan-27 01:33N 49°07' W 123°21'1212.3
2015-Jan-27 00:33N 49°09' W 123°02'0 0.2
2015-Jan-26 23:33N 49°09' W 123°02'0 0.1
2015-Jan-26 22:33N 49°09' W 123°02'0 0.1
2015-Jan-26 21:33N 49°09' W 123°02'0 0.0
2015-Jan-26 20:33N 49°09' W 123°02'0 0.0
2015-Jan-26 19:33N 49°09' W 123°02'0 0.0
2015-Jan-26 18:33N 49°09' W 123°02'0 0.0
2015-Jan-26 17:33N 49°09' W 123°02'0 0.0
2015-Jan-26 16:33N 49°09' W 123°02'0 0.0
2015-Jan-26 15:33N 49°09' W 123°02'0 0.0
2015-Jan-26 14:33N 49°09' W 123°02'0 0.0
2015-Jan-26 13:33N 49°09' W 123°02'0 0.0
2015-Jan-26 12:33N 49°09' W 123°02'0 0.0
2015-Jan-26 11:33N 49°09' W 123°02'0 0.0
2015-Jan-26 10:33N 49°09' W 123°02'0 0.0
2015-Jan-26 09:33N 49°09' W 123°02'0 0.0
2015-Jan-26 08:33N 49°09' W 123°02'0 0.0
2015-Jan-26 07:33N 49°09' W 123°02'0 0.0
2015-Jan-26 06:33N 49°09' W 123°02'0 0.0
2015-Jan-26 05:33N 49°09' W 123°02'0 0.0
2015-Jan-26 04:33N 49°09' W 123°02'0 0.0
2015-Jan-26 03:33N 49°09' W 123°02'0 0.0
2015-Jan-26 02:33N 49°09' W 123°02'0 0.0
2015-Jan-26 01:33N 49°09' W 123°02'0 0.0
2015-Jan-26 00:33N 49°09' W 123°02'0 0.0
2015-Jan-25 23:33N 49°09' W 123°02'0 0.0
2015-Jan-25 22:33N 49°09' W 123°02'0 0.0
2015-Jan-25 21:33N 49°09' W 123°02'0 0.0
2015-Jan-25 20:33N 49°09' W 123°02'0 0.0
2015-Jan-25 19:33N 49°09' W 123°02'0 0.0
2015-Jan-25 18:34N 49°09' W 123°02'0 0.0
2015-Jan-25 17:33N 49°09' W 123°02'0 0.0
2015-Jan-25 16:33N 49°09' W 123°02'0 0.4
2015-Jan-25 15:33N 49°09' W 123°03'10 9.8
2015-Jan-25 14:34N 49°07' W 123°17'1110.9
2015-Jan-25 13:34N 49°09' W 123°33'1111.5
2015-Jan-25 12:33N 49°13' W 123°50'5 4.8
2015-Jan-25 11:33N 49°10' W 123°56'0 0.0
2015-Jan-25 10:32N 49°10' W 123°56'2 1.7
2015-Jan-25 09:33N 49°11' W 123°54'9 8.9
2015-Jan-25 08:33N 49°12' W 123°40'10 9.6
2015-Jan-25 07:33N 49°08' W 123°27'1110.6
2015-Jan-25 06:34N 49°07' W 123°11'6 6.0
2015-Jan-25 05:33N 49°09' W 123°02'0 0.0
2015-Jan-25 04:33N 49°09' W 123°02'0 0.0
2015-Jan-25 03:33N 49°09' W 123°02'0 0.0
2015-Jan-25 02:33N 49°09' W 123°02'0 0.0
2015-Jan-25 01:33N 49°09' W 123°02'0 0.0
2015-Jan-25 00:33N 49°09' W 123°02'0 0.0
2015-Jan-24 23:33N 49°09' W 123°02'5 5.1
2015-Jan-24 22:34N 49°07' W 123°09'1111.2
2015-Jan-24 21:33N 49°07' W 123°26'1313.1
2015-Jan-24 20:33N 49°12' W 123°45'7 3.1
2015-Jan-24 18:11N 49°10' W 123°56'0 0.0
2015-Jan-24 17:31N 49°10' W 123°56'0 0.0
2015-Jan-24 13:04N 49°10' W 123°56'4 7.9
2015-Jan-24 12:33N 49°13' W 123°51'1211.8
2015-Jan-24 11:33N 49°10' W 123°34'1211.7
2015-Jan-24 10:33N 49°07' W 123°17'10 9.7
2015-Jan-24 09:33N 49°09' W 123°02'0 0.0
2015-Jan-24 08:33N 49°09' W 123°02'7 6.6
2015-Jan-24 07:33N 49°07' W 123°12'1111.3
2015-Jan-24 06:33N 49°08' W 123°29'1413.6
2015-Jan-24 05:33N 49°13' W 123°49'6 2.8
2015-Jan-24 03:33N 49°10' W 123°56'1010.4
2015-Jan-24 02:33N 49°12' W 123°40'1312.7
2015-Jan-24 01:33N 49°07' W 123°22'1312.9
2015-Jan-24 00:34N 49°09' W 123°03'0 0.4
2015-Jan-23 23:34N 49°09' W 123°02'5 5.0
2015-Jan-23 22:34N 49°07' W 123°09'7 7.4
2015-Jan-23 21:33N 49°02' W 123°17'1211.7
2015-Jan-23 20:33N 48°50' W 123°21'9 9.0
2015-Jan-23 19:33N 48°41' W 123°24'0 0.0
2015-Jan-23 18:32N 48°41' W 123°24'0 0.0
2015-Jan-23 17:33N 48°41' W 123°24'0 0.0
2015-Jan-23 16:33N 48°41' W 123°24'0 0.0
2015-Jan-23 15:33N 48°41' W 123°24'0 0.0
2015-Jan-23 14:33N 48°41' W 123°24'0 0.0
2015-Jan-23 13:33N 48°41' W 123°24'3 2.7
2015-Jan-23 12:33N 48°43' W 123°21'1212.1
2015-Jan-23 11:33N 48°55' W 123°19'1211.8
2015-Jan-23 10:33N 49°07' W 123°17'1010.1
2015-Jan-23 09:34N 49°09' W 123°02'0 0.0
2015-Jan-23 08:34N 49°09' W 123°02'7 6.7
2015-Jan-23 07:34N 49°07' W 123°12'1212.1
2015-Jan-23 06:33N 49°09' W 123°31'1312.9
2015-Jan-23 05:33N 49°13' W 123°49'5 2.4
2015-Jan-23 03:31N 49°10' W 123°55'1111.1
2015-Jan-23 02:33N 49°12' W 123°39'1413.9
2015-Jan-23 01:33N 49°06' W 123°20'1211.6
2015-Jan-23 00:34N 49°09' W 123°02'0 0.0
2015-Jan-22 23:33N 49°09' W 123°02'5 4.8
2015-Jan-22 22:33N 49°06' W 123°09'8 7.5
2015-Jan-22 21:33N 49°01' W 123°17'1211.9
2015-Jan-22 20:33N 48°50' W 123°20'9 8.7
2015-Jan-22 19:33N 48°41' W 123°24'0 0.0
2015-Jan-22 18:33N 48°41' W 123°24'0 0.0
2015-Jan-22 17:33N 48°41' W 123°24'0 0.0
2015-Jan-22 16:33N 48°41' W 123°24'0 0.0
2015-Jan-22 15:33N 48°41' W 123°24'0 0.0
2015-Jan-22 14:33N 48°41' W 123°24'0 0.0
2015-Jan-22 13:33N 48°41' W 123°24'3 3.1
2015-Jan-22 12:33N 48°43' W 123°21'1312.6
2015-Jan-22 11:33N 48°56' W 123°19'1212.4
2015-Jan-22 10:34N 49°08' W 123°14'8 7.9
2015-Jan-22 09:34N 49°09' W 123°02'0 0.0
2015-Jan-22 08:34N 49°09' W 123°02'8 7.6
2015-Jan-22 07:34N 49°08' W 123°14'1111.1
2015-Jan-22 06:34N 49°08' W 123°31'  
Track history (hours):
 
Tides and Currents Weather Stations Pressure Air Temp Water Temp Dewpoint Dewpoint Depression Visibility Wind Speed Wind Dir Waves Ship Positions

Carrier Princess

Last reported at 2015-Feb-01 06:34 UTC. Time now 2015-Feb-01 07:14 UTC.
Position N 49°07' W 123°09'.

Length 112 m; draft 3 m.

Type: Cargo ship. MMSI: 316003656.

Date/timePositionNaut miles runAvg speedWind from/ knotsBaromVisibWave heightAir tempDewpointWater temp
2015-Feb-01 06:34N 49°07' W 123°09'5 5.1
2015-Feb-01 05:33N 49°09' W 123°02'0 0.0
2015-Feb-01 04:33N 49°09' W 123°02'0 0.0
2015-Feb-01 03:33N 49°09' W 123°02'0 0.0
2015-Feb-01 02:33N 49°09' W 123°02'0 0.0
2015-Feb-01 01:33N 49°09' W 123°02'0 0.0
2015-Feb-01 00:33N 49°09' W 123°02'0 0.0
2015-Jan-31 23:33N 49°09' W 123°02'2 2.2
2015-Jan-31 22:33N 49°07' W 123°05'1312.8
2015-Jan-31 21:33N 49°07' W 123°24'1515.0
2015-Jan-31 20:34N 49°12' W 123°46'7 7.0
2015-Jan-31 19:33N 49°10' W 123°56'0 0.0
2015-Jan-31 18:33N 49°10' W 123°56'0 0.0
2015-Jan-31 17:29N 49°10' W 123°56'0 0.0
2015-Jan-31 16:33N 49°10' W 123°56'0 0.0
2015-Jan-31 15:33N 49°10' W 123°56'0 0.0
2015-Jan-31 14:33N 49°10' W 123°56'0 0.0
2015-Jan-31 13:33N 49°10' W 123°56'2 2.1
2015-Jan-31 12:33N 49°11' W 123°54'1514.9
2015-Jan-31 11:33N 49°09' W 123°31'1514.8
2015-Jan-31 10:34N 49°07' W 123°09'5 4.9
2015-Jan-31 09:33N 49°09' W 123°02'0 0.0
2015-Jan-31 08:33N 49°09' W 123°02'6 6.0
2015-Jan-31 07:33N 49°07' W 123°11'1212.1
2015-Jan-31 06:34N 49°08' W 123°29'1413.8
2015-Jan-31 05:33N 49°13' W 123°49'6 5.6
2015-Jan-31 04:33N 49°10' W 123°56'0 0.2
2015-Jan-31 03:34N 49°10' W 123°55'1212.4
2015-Jan-31 02:34N 49°12' W 123°37'1413.6
2015-Jan-31 01:33N 49°07' W 123°17'1010.0
2015-Jan-31 00:33N 49°09' W 123°02'0 0.1
2015-Jan-30 23:33N 49°09' W 123°02'5 4.7
2015-Jan-30 22:33N 49°06' W 123°09'10 9.7
2015-Jan-30 21:33N 49°00' W 123°20'1313.0
2015-Jan-30 20:33N 48°47' W 123°20'6 6.4
2015-Jan-30 19:33N 48°41' W 123°24'0 0.0
2015-Jan-30 18:33N 48°41' W 123°24'0 0.0
2015-Jan-30 17:33N 48°41' W 123°24'0 0.0
2015-Jan-30 16:33N 48°41' W 123°24'0 0.0
2015-Jan-30 15:33N 48°41' W 123°24'0 0.0
2015-Jan-30 14:33N 48°41' W 123°24'0 0.0
2015-Jan-30 13:33N 48°41' W 123°24'3 2.7
2015-Jan-30 12:33N 48°44' W 123°23'1111.0
2015-Jan-30 11:33N 48°54' W 123°18'1413.7
2015-Jan-30 10:34N 49°08' W 123°15'8 8.3
2015-Jan-30 09:33N 49°09' W 123°02'0 0.0
2015-Jan-30 08:33N 49°09' W 123°02'7 7.1
2015-Jan-30 07:33N 49°08' W 123°13'1312.5
2015-Jan-30 06:33N 49°09' W 123°32'1414.0
2015-Jan-30 05:33N 49°12' W 123°52'3 3.2
2015-Jan-30 04:33N 49°10' W 123°56'0 0.2
2015-Jan-30 03:33N 49°10' W 123°55'1110.6
2015-Jan-30 02:33N 49°11' W 123°40'1312.9
2015-Jan-30 01:33N 49°07' W 123°21'1312.7
2015-Jan-30 00:34N 49°09' W 123°02'0 0.0
2015-Jan-29 23:33N 49°09' W 123°02'4 4.3
2015-Jan-29 22:33N 49°06' W 123°08'9 9.4
2015-Jan-29 21:33N 49°01' W 123°19'1111.0
2015-Jan-29 20:33N 48°50' W 123°21'9 8.9
2015-Jan-29 19:34N 48°41' W 123°24'0 0.0
2015-Jan-29 18:34N 48°41' W 123°24'0 0.0
2015-Jan-29 17:32N 48°41' W 123°24'0 0.0
2015-Jan-29 16:33N 48°41' W 123°24'0 0.0
2015-Jan-29 15:34N 48°41' W 123°24'0 0.0
2015-Jan-29 14:34N 48°41' W 123°24'0 0.0
2015-Jan-29 13:33N 48°41' W 123°24'2 1.8
2015-Jan-29 12:33N 48°43' W 123°24'1313.4
2015-Jan-29 11:34N 48°56' W 123°18'1212.3
2015-Jan-29 10:34N 49°08' W 123°13'7 7.2
2015-Jan-29 09:33N 49°09' W 123°02'0 0.0
2015-Jan-29 08:33N 49°09' W 123°02'7 6.7
2015-Jan-29 07:34N 49°07' W 123°12'1313.0
2015-Jan-29 06:33N 49°09' W 123°32'1313.1
2015-Jan-29 05:33N 49°13' W 123°51'4 4.3
2015-Jan-29 04:33N 49°10' W 123°56'0 0.2
2015-Jan-29 03:33N 49°10' W 123°55'1211.7
2015-Jan-29 02:33N 49°12' W 123°38'1313.3
2015-Jan-29 01:34N 49°06' W 123°19'1211.6
2015-Jan-29 00:34N 49°09' W 123°02'0 0.0
2015-Jan-28 23:33N 49°09' W 123°02'4 4.0
2015-Jan-28 22:33N 49°07' W 123°07'9 9.3
2015-Jan-28 21:33N 49°02' W 123°20'1211.9
2015-Jan-28 20:32N 48°50' W 123°21'9 9.1
2015-Jan-28 19:33N 48°41' W 123°24'0 0.0
2015-Jan-28 18:33N 48°41' W 123°24'0 0.0
2015-Jan-28 17:33N 48°41' W 123°24'0 0.0
2015-Jan-28 16:33N 48°41' W 123°24'0 0.0
2015-Jan-28 15:33N 48°41' W 123°24'0 0.0
2015-Jan-28 14:33N 48°41' W 123°24'0 0.0
2015-Jan-28 13:33N 48°41' W 123°24'2 1.8
2015-Jan-28 12:33N 48°43' W 123°24'1616.5
2015-Jan-28 11:34N 48°59' W 123°18'1212.3
2015-Jan-28 10:34N 49°07' W 123°05'2 2.0
2015-Jan-28 09:33N 49°09' W 123°02'0 0.0
2015-Jan-28 08:33N 49°09' W 123°02'8 7.5
2015-Jan-28 07:33N 49°08' W 123°13'1211.8
2015-Jan-28 06:33N 49°09' W 123°32'1312.9
2015-Jan-28 05:33N 49°13' W 123°50'5 4.7
2015-Jan-28 04:33N 49°10' W 123°56'0 0.1
2015-Jan-28 03:33N 49°10' W 123°56'1010.4
2015-Jan-28 02:33N 49°12' W 123°40'1313.0
2015-Jan-28 01:33N 49°07' W 123°22'1312.8
2015-Jan-28 00:34N 49°09' W 123°02'0 0.2
2015-Jan-27 23:33N 49°09' W 123°02'4 3.9
2015-Jan-27 22:33N 49°07' W 123°07'9 9.2
2015-Jan-27 21:34N 49°02' W 123°19'1211.9
2015-Jan-27 20:33N 48°50' W 123°20'9 8.9
2015-Jan-27 19:34N 48°41' W 123°24'0 0.0
2015-Jan-27 18:33N 48°41' W 123°24'0 0.0
2015-Jan-27 17:33N 48°41' W 123°24'0 0.0
2015-Jan-27 16:33N 48°41' W 123°24'0 0.0
2015-Jan-27 15:33N 48°41' W 123°24'0 0.0
2015-Jan-27 14:33N 48°41' W 123°24'0 0.0
2015-Jan-27 13:33N 48°41' W 123°24'3 3.0
2015-Jan-27 12:33N 48°44' W 123°23'1413.6
2015-Jan-27 11:33N 48°58' W 123°21'1111.2
2015-Jan-27 10:34N 49°08' W 123°13'7 7.1
2015-Jan-27 09:33N 49°09' W 123°02'0 0.0
2015-Jan-27 08:33N 49°09' W 123°02'8 8.3
2015-Jan-27 07:34N 49°08' W 123°15'1212.5
2015-Jan-27 06:34N 49°10' W 123°34'1313.2
2015-Jan-27 05:33N 49°11' W 123°54'1 1.4
2015-Jan-27 04:33N 49°10' W 123°56'1 0.7
2015-Jan-27 03:33N 49°10' W 123°55'1010.3
2015-Jan-27 02:33N 49°12' W 123°39'1313.0
2015-Jan-27 01:33N 49°07' W 123°21'1212.3
2015-Jan-27 00:33N 49°09' W 123°02'0 0.2
2015-Jan-26 23:33N 49°09' W 123°02'0 0.1
2015-Jan-26 22:33N 49°09' W 123°02'0 0.1
2015-Jan-26 21:33N 49°09' W 123°02'0 0.0
2015-Jan-26 20:33N 49°09' W 123°02'0 0.0
2015-Jan-26 19:33N 49°09' W 123°02'0 0.0
2015-Jan-26 18:33N 49°09' W 123°02'0 0.0
2015-Jan-26 17:33N 49°09' W 123°02'0 0.0
2015-Jan-26 16:33N 49°09' W 123°02'0 0.0
2015-Jan-26 15:33N 49°09' W 123°02'0 0.0
2015-Jan-26 14:33N 49°09' W 123°02'0 0.0
2015-Jan-26 13:33N 49°09' W 123°02'0 0.0
2015-Jan-26 12:33N 49°09' W 123°02'0 0.0
2015-Jan-26 11:33N 49°09' W 123°02'0 0.0
2015-Jan-26 10:33N 49°09' W 123°02'0 0.0
2015-Jan-26 09:33N 49°09' W 123°02'0 0.0
2015-Jan-26 08:33N 49°09' W 123°02'0 0.0
2015-Jan-26 07:33N 49°09' W 123°02'0 0.0
2015-Jan-26 06:33N 49°09' W 123°02'0 0.0
2015-Jan-26 05:33N 49°09' W 123°02'0 0.0
2015-Jan-26 04:33N 49°09' W 123°02'0 0.0
2015-Jan-26 03:33N 49°09' W 123°02'0 0.0
2015-Jan-26 02:33N 49°09' W 123°02'0 0.0
2015-Jan-26 01:33N 49°09' W 123°02'0 0.0
2015-Jan-26 00:33N 49°09' W 123°02'0 0.0
2015-Jan-25 23:33N 49°09' W 123°02'0 0.0
2015-Jan-25 22:33N 49°09' W 123°02'0 0.0
2015-Jan-25 21:33N 49°09' W 123°02'0 0.0
2015-Jan-25 20:33N 49°09' W 123°02'0 0.0
2015-Jan-25 19:33N 49°09' W 123°02'0 0.0
2015-Jan-25 18:34N 49°09' W 123°02'0 0.0
2015-Jan-25 17:33N 49°09' W 123°02'0 0.0
2015-Jan-25 16:33N 49°09' W 123°02'0 0.4
2015-Jan-25 15:33N 49°09' W 123°03'10 9.8
2015-Jan-25 14:34N 49°07' W 123°17'1110.9
2015-Jan-25 13:34N 49°09' W 123°33'1111.5
2015-Jan-25 12:33N 49°13' W 123°50'5 4.8
2015-Jan-25 11:33N 49°10' W 123°56'0 0.0
2015-Jan-25 10:32N 49°10' W 123°56'2 1.7
2015-Jan-25 09:33N 49°11' W 123°54'9 8.9
2015-Jan-25 08:33N 49°12' W 123°40'10 9.6
2015-Jan-25 07:33N 49°08' W 123°27'1110.6
2015-Jan-25 06:34N 49°07' W 123°11'6 6.0
2015-Jan-25 05:33N 49°09' W 123°02'0 0.0
2015-Jan-25 04:33N 49°09' W 123°02'0 0.0
2015-Jan-25 03:33N 49°09' W 123°02'0 0.0
2015-Jan-25 02:33N 49°09' W 123°02'0 0.0
2015-Jan-25 01:33N 49°09' W 123°02'0 0.0
2015-Jan-25 00:33N 49°09' W 123°02'0 0.0
2015-Jan-24 23:33N 49°09' W 123°02'5 5.1
2015-Jan-24 22:34N 49°07' W 123°09'1111.2
2015-Jan-24 21:33N 49°07' W 123°26'1313.1
2015-Jan-24 20:33N 49°12' W 123°45'7 3.1
2015-Jan-24 18:11N 49°10' W 123°56'0 0.0
2015-Jan-24 17:31N 49°10' W 123°56'0 0.0
2015-Jan-24 13:04N 49°10' W 123°56'4 7.9
2015-Jan-24 12:33N 49°13' W 123°51'1211.8
2015-Jan-24 11:33N 49°10' W 123°34'1211.7
2015-Jan-24 10:33N 49°07' W 123°17'10 9.7
2015-Jan-24 09:33N 49°09' W 123°02'0 0.0
2015-Jan-24 08:33N 49°09' W 123°02'7 6.6
2015-Jan-24 07:33N 49°07' W 123°12'1111.3
2015-Jan-24 06:33N 49°08' W 123°29'1413.6
2015-Jan-24 05:33N 49°13' W 123°49'6 2.8
2015-Jan-24 03:33N 49°10' W 123°56'1010.4
2015-Jan-24 02:33N 49°12' W 123°40'1312.7
2015-Jan-24 01:33N 49°07' W 123°22'1312.9
2015-Jan-24 00:34N 49°09' W 123°03'0 0.4
2015-Jan-23 23:34N 49°09' W 123°02'5 5.0
2015-Jan-23 22:34N 49°07' W 123°09'7 7.4
2015-Jan-23 21:33N 49°02' W 123°17'1211.7
2015-Jan-23 20:33N 48°50' W 123°21'9 9.0
2015-Jan-23 19:33N 48°41' W 123°24'0 0.0
2015-Jan-23 18:32N 48°41' W 123°24'0 0.0
2015-Jan-23 17:33N 48°41' W 123°24'0 0.0
2015-Jan-23 16:33N 48°41' W 123°24'0 0.0
2015-Jan-23 15:33N 48°41' W 123°24'0 0.0
2015-Jan-23 14:33N 48°41' W 123°24'0 0.0
2015-Jan-23 13:33N 48°41' W 123°24'3 2.7
2015-Jan-23 12:33N 48°43' W 123°21'1212.1
2015-Jan-23 11:33N 48°55' W 123°19'1211.8
2015-Jan-23 10:33N 49°07' W 123°17'1010.1
2015-Jan-23 09:34N 49°09' W 123°02'0 0.0
2015-Jan-23 08:34N 49°09' W 123°02'7 6.7
2015-Jan-23 07:34N 49°07' W 123°12'1212.1
2015-Jan-23 06:33N 49°09' W 123°31'1312.9
2015-Jan-23 05:33N 49°13' W 123°49'5 2.4
2015-Jan-23 03:31N 49°10' W 123°55'1111.1
2015-Jan-23 02:33N 49°12' W 123°39'1413.9
2015-Jan-23 01:33N 49°06' W 123°20'1211.6
2015-Jan-23 00:34N 49°09' W 123°02'0 0.0
2015-Jan-22 23:33N 49°09' W 123°02'5 4.8
2015-Jan-22 22:33N 49°06' W 123°09'8 7.5
2015-Jan-22 21:33N 49°01' W 123°17'1211.9
2015-Jan-22 20:33N 48°50' W 123°20'9 8.7
2015-Jan-22 19:33N 48°41' W 123°24'0 0.0
2015-Jan-22 18:33N 48°41' W 123°24'0 0.0
2015-Jan-22 17:33N 48°41' W 123°24'0 0.0
2015-Jan-22 16:33N 48°41' W 123°24'0 0.0
2015-Jan-22 15:33N 48°41' W 123°24'0 0.0
2015-Jan-22 14:33N 48°41' W 123°24'0 0.0
2015-Jan-22 13:33N 48°41' W 123°24'3 3.1
2015-Jan-22 12:33N 48°43' W 123°21'1312.6
2015-Jan-22 11:33N 48°56' W 123°19'1212.4
2015-Jan-22 10:34N 49°08' W 123°14'8 7.9
2015-Jan-22 09:34N 49°09' W 123°02'0 0.0
2015-Jan-22 08:34N 49°09' W 123°02'8 7.6
2015-Jan-22 07:34N 49°08' W 123°14'1111.1
2015-Jan-22 06:34N 49°08' W 123°31'  

Dump ship's entire track history